createdAt,value
2022-12-13T00:00:50.582Z,16.38
2022-12-13T00:01:54.543Z,13.85
2022-12-13T00:02:56.553Z,14.00
2022-12-13T00:04:01.142Z,15.90
2022-12-13T00:05:04.171Z,13.70
2022-12-13T00:06:06.360Z,15.23
2022-12-13T00:07:09.138Z,12.93
2022-12-13T00:08:11.483Z,17.48
2022-12-13T00:09:14.842Z,16.02
2022-12-13T00:10:16.795Z,16.92
2022-12-13T00:11:19.644Z,17.50
2022-12-13T00:12:23.025Z,9.43
2022-12-13T00:13:26.601Z,12.30
2022-12-13T00:14:29.529Z,15.40
2022-12-13T00:15:31.323Z,13.75
2022-12-13T00:16:34.111Z,14.25
2022-12-13T00:17:36.026Z,14.18
2022-12-13T00:18:38.967Z,15.43
2022-12-13T00:19:41.709Z,13.55
2022-12-13T00:20:43.504Z,12.27
2022-12-13T00:21:46.604Z,16.10
2022-12-13T00:22:48.465Z,14.55
2022-12-13T00:23:51.722Z,12.75
2022-12-13T00:24:54.335Z,18.73
2022-12-13T00:25:57.090Z,13.23
2022-12-13T00:26:59.002Z,9.68
2022-12-13T00:28:03.625Z,15.20
2022-12-13T00:29:06.657Z,15.00
2022-12-13T00:30:10.528Z,12.88
2022-12-13T00:31:51.651Z,15.27
2022-12-13T00:32:34.946Z,16.48
2022-12-13T00:33:37.821Z,15.90
2022-12-13T00:34:40.550Z,13.68
2022-12-13T00:35:42.430Z,14.00
2022-12-13T00:36:45.570Z,14.15
2022-12-13T00:37:47.292Z,7.07
2022-12-13T00:39:00.842Z,12.38
2022-12-13T00:40:03.834Z,9.00
2022-12-13T00:41:13.301Z,11.05
2022-12-13T00:42:16.013Z,13.63
2022-12-13T00:43:19.178Z,12.32
2022-12-13T00:44:21.923Z,13.95
2022-12-13T00:45:24.818Z,9.73
2022-12-13T00:46:27.800Z,13.35
2022-12-13T00:47:30.600Z,12.63
2022-12-13T00:48:32.328Z,13.45
2022-12-13T00:49:35.173Z,12.05
2022-12-13T00:50:37.771Z,12.65
2022-12-13T00:51:40.997Z,10.70
2022-12-13T00:52:42.814Z,12.02
2022-12-13T00:53:45.946Z,12.63
2022-12-13T00:54:48.826Z,12.02
2022-12-13T00:55:51.078Z,8.95
2022-12-13T00:56:54.055Z,7.90
2022-12-13T00:57:55.897Z,9.57
2022-12-13T00:59:00.918Z,5.95
2022-12-13T01:00:04.379Z,8.82
2022-12-13T01:01:07.970Z,6.07
2022-12-13T01:02:10.789Z,10.20
2022-12-13T01:03:20.673Z,8.18
2022-12-13T01:04:23.554Z,6.78
2022-12-13T01:06:02.245Z,5.18
2022-12-13T01:06:51.353Z,8.85
2022-12-13T01:07:53.179Z,8.45
2022-12-13T01:08:56.566Z,8.20
2022-12-13T01:09:59.397Z,8.57
2022-12-13T01:11:01.201Z,8.45
2022-12-13T01:12:06.924Z,9.73
2022-12-13T01:13:08.665Z,8.50
2022-12-13T01:14:12.772Z,10.95
2022-12-13T01:15:14.949Z,9.60
2022-12-13T01:16:18.686Z,8.13
2022-12-13T01:17:21.744Z,9.18
2022-12-13T01:18:23.571Z,9.48
2022-12-13T01:19:27.562Z,9.60
2022-12-13T01:20:29.307Z,9.90
2022-12-13T01:21:32.181Z,6.38
2022-12-13T01:22:33.969Z,11.20
2022-12-13T01:23:36.942Z,8.50
2022-12-13T01:24:40.008Z,9.13
2022-12-13T01:25:41.744Z,8.57
2022-12-13T01:26:44.855Z,11.13
2022-12-13T01:27:47.171Z,8.85
2022-12-13T01:28:50.428Z,8.40
2022-12-13T01:29:53.521Z,12.75
2022-12-13T01:30:57.540Z,6.93
2022-12-13T01:31:59.548Z,7.78
2022-12-13T01:33:02.287Z,9.50
2022-12-13T01:34:19.262Z,9.05
2022-12-13T01:35:21.066Z,9.02
2022-12-13T01:36:27.511Z,8.93
2022-12-13T01:37:31.079Z,3.70
2022-12-13T01:38:39.223Z,10.48
2022-12-13T01:39:41.987Z,9.07
2022-12-13T01:40:45.397Z,7.30
2022-12-13T01:41:50.595Z,8.80
2022-12-13T01:42:53.714Z,9.10
2022-12-13T01:43:58.032Z,8.02
2022-12-13T01:45:07.814Z,8.68
2022-12-13T01:46:10.632Z,7.03
2022-12-13T01:47:15.970Z,5.55
2022-12-13T01:48:22.007Z,6.03
2022-12-13T01:49:23.796Z,7.07
2022-12-13T01:50:31.900Z,9.57
2022-12-13T01:51:36.442Z,9.15
2022-12-13T01:52:39.530Z,6.97
2022-12-13T01:54:02.611Z,7.25
2022-12-13T01:55:07.491Z,8.15
2022-12-13T01:56:11.912Z,6.47
2022-12-13T01:57:15.935Z,10.30
2022-12-13T01:58:19.518Z,7.88
2022-12-13T01:59:22.255Z,6.47
2022-12-13T02:00:27.549Z,9.40
2022-12-13T02:01:29.681Z,8.15
2022-12-13T02:02:32.485Z,5.20
2022-12-13T02:03:35.182Z,5.90
2022-12-13T02:04:43.805Z,9.52
2022-12-13T02:05:53.113Z,9.93
2022-12-13T02:06:56.343Z,8.25
2022-12-13T02:08:01.178Z,9.63
2022-12-13T02:09:05.200Z,5.10
2022-12-13T02:10:09.543Z,7.00
2022-12-13T02:11:11.711Z,9.05
2022-12-13T02:12:14.810Z,9.10
2022-12-13T02:13:16.723Z,9.38
2022-12-13T02:14:19.461Z,8.30
2022-12-13T02:15:21.909Z,9.27
2022-12-13T02:16:35.359Z,9.55
2022-12-13T02:17:52.314Z,9.60
2022-12-13T02:19:06.836Z,8.45
2022-12-13T02:20:26.863Z,8.10
2022-12-13T02:21:34.313Z,6.65
2022-12-13T02:23:05.154Z,8.20
2022-12-13T02:24:40.758Z,6.53
2022-12-13T02:26:00.191Z,8.35
2022-12-13T02:27:10.241Z,6.20
2022-12-13T02:28:31.289Z,9.88
2022-12-13T02:30:19.631Z,9.43
2022-12-13T02:31:28.306Z,5.53
2022-12-13T02:32:33.287Z,3.88
2022-12-13T02:33:42.687Z,6.07
2022-12-13T02:34:47.195Z,9.90
2022-12-13T02:35:54.601Z,8.93
2022-12-13T02:36:59.413Z,9.30
2022-12-13T02:38:06.913Z,13.95
2022-12-13T02:39:11.888Z,9.07
2022-12-13T02:40:20.016Z,9.00
2022-12-13T02:41:27.706Z,8.98
2022-12-13T02:42:31.741Z,10.80
2022-12-13T02:43:45.224Z,10.48
2022-12-13T02:44:52.457Z,11.15
2022-12-13T02:45:56.975Z,8.02
2022-12-13T02:47:03.188Z,9.73
2022-12-13T02:48:07.191Z,6.65
2022-12-13T02:49:10.300Z,6.50
2022-12-13T02:50:14.572Z,8.38
2022-12-13T02:51:16.943Z,8.00
2022-12-13T02:52:22.201Z,9.65
2022-12-13T02:53:25.692Z,10.88
2022-12-13T02:54:28.436Z,8.93
2022-12-13T02:55:32.381Z,9.10
2022-12-13T02:56:35.138Z,6.22
2022-12-13T02:57:38.481Z,10.07
2022-12-13T02:58:43.998Z,10.77
2022-12-13T02:59:45.865Z,11.45
2022-12-13T03:00:56.614Z,7.18
2022-12-13T03:02:10.857Z,8.15
2022-12-13T03:03:21.829Z,7.70
2022-12-13T03:04:33.697Z,9.27
2022-12-13T03:05:59.397Z,8.45
2022-12-13T03:07:08.684Z,8.50
2022-12-13T03:08:19.692Z,8.57
2022-12-13T03:09:38.297Z,8.30
2022-12-13T03:10:43.673Z,9.18
2022-12-13T03:12:18.149Z,7.50
2022-12-13T03:13:39.936Z,8.02
2022-12-13T03:14:50.321Z,7.63
2022-12-13T03:15:57.688Z,6.25
2022-12-13T03:17:02.284Z,9.63
2022-12-13T03:18:15.743Z,9.10
2022-12-13T03:19:20.583Z,8.45
2022-12-13T03:20:24.730Z,9.02
2022-12-13T03:21:27.642Z,9.63
2022-12-13T03:22:29.509Z,4.28
2022-12-13T03:23:32.264Z,10.70
2022-12-13T03:24:34.122Z,8.05
2022-12-13T03:25:36.980Z,9.25
2022-12-13T03:26:39.494Z,10.68
2022-12-13T03:27:42.350Z,9.20
2022-12-13T03:28:44.535Z,10.88
2022-12-13T03:29:47.290Z,8.65
2022-12-13T03:30:49.183Z,8.30
2022-12-13T03:31:51.960Z,11.00
2022-12-13T03:32:55.083Z,12.23
2022-12-13T03:33:58.299Z,9.85
2022-12-13T03:35:00.965Z,10.73
2022-12-13T03:36:04.044Z,8.48
2022-12-13T03:37:05.783Z,10.63
2022-12-13T03:38:09.040Z,10.50
2022-12-13T03:39:11.828Z,9.25
2022-12-13T03:40:13.775Z,8.73
2022-12-13T03:41:20.186Z,8.57
2022-12-13T03:42:21.962Z,8.95
2022-12-13T03:43:24.984Z,9.27
2022-12-13T03:44:31.712Z,9.93
2022-12-13T03:45:34.548Z,10.07
2022-12-13T03:46:36.454Z,8.15
2022-12-13T03:47:39.585Z,6.38
2022-12-13T03:48:42.684Z,8.15
2022-12-13T03:49:45.423Z,11.00
2022-12-13T03:50:57.569Z,12.02
2022-12-13T03:51:59.378Z,9.45
2022-12-13T03:53:04.695Z,12.10
2022-12-13T03:54:07.497Z,9.95
2022-12-13T03:55:09.329Z,11.02
2022-12-13T03:56:12.044Z,9.93
2022-12-13T03:57:15.657Z,9.55
2022-12-13T03:58:18.461Z,8.93
2022-12-13T03:59:21.200Z,12.85
2022-12-13T04:00:23.383Z,11.45
2022-12-13T04:01:26.375Z,13.95
2022-12-13T04:02:31.158Z,12.50
2022-12-13T04:03:34.638Z,12.80
2022-12-13T04:04:38.774Z,13.15
2022-12-13T04:05:40.560Z,11.73
2022-12-13T04:06:43.649Z,15.55
2022-12-13T04:07:48.358Z,13.52
2022-12-13T04:08:52.003Z,14.10
2022-12-13T04:09:53.962Z,14.45
2022-12-13T04:10:56.716Z,15.23
2022-12-13T04:12:17.080Z,15.35
2022-12-13T04:13:33.931Z,13.88
2022-12-13T04:14:36.678Z,15.32
2022-12-13T04:15:38.446Z,15.57
2022-12-13T04:16:41.297Z,10.10
2022-12-13T04:17:43.056Z,14.85
2022-12-13T04:18:54.295Z,15.50
2022-12-13T04:19:57.466Z,13.15
2022-12-13T04:21:00.226Z,11.15
2022-12-13T04:22:02.056Z,14.02
2022-12-13T04:23:09.926Z,15.98
2022-12-13T04:24:13.428Z,22.70
2022-12-13T04:25:15.433Z,14.75
2022-12-13T04:26:18.549Z,15.18
2022-12-13T04:27:20.331Z,16.83
2022-12-13T04:28:23.339Z,12.98
2022-12-13T04:29:25.520Z,12.32
2022-12-13T04:30:37.665Z,13.55
2022-12-13T04:31:41.036Z,11.38
2022-12-13T04:32:42.897Z,10.45
2022-12-13T04:33:45.614Z,14.15
2022-12-13T04:34:47.496Z,18.25
2022-12-13T04:35:52.201Z,13.65
2022-12-13T04:36:53.966Z,9.85
2022-12-13T04:37:57.032Z,13.88
2022-12-13T04:39:00.526Z,12.75
2022-12-13T04:40:02.778Z,12.27
2022-12-13T04:41:07.147Z,15.45
2022-12-13T04:42:09.245Z,14.80
2022-12-13T04:43:11.951Z,9.77
2022-12-13T04:44:27.892Z,8.68
2022-12-13T04:45:33.443Z,13.07
2022-12-13T04:46:35.793Z,11.90
2022-12-13T04:47:38.583Z,10.75
2022-12-13T04:48:41.470Z,13.43
2022-12-13T04:49:43.204Z,13.75
2022-12-13T04:50:46.010Z,11.95
2022-12-13T04:51:49.332Z,16.25
2022-12-13T04:52:52.125Z,13.13
2022-12-13T04:53:53.975Z,12.45
2022-12-13T04:54:57.212Z,12.35
2022-12-13T04:55:59.266Z,11.68
2022-12-13T04:57:01.956Z,14.20
2022-12-13T04:58:03.826Z,11.45
2022-12-13T04:59:06.600Z,14.10
2022-12-13T05:00:13.182Z,13.50
2022-12-13T05:01:16.059Z,16.15
2022-12-13T05:02:23.971Z,13.60
2022-12-13T05:03:27.872Z,13.98
2022-12-13T05:04:33.220Z,10.27
2022-12-13T05:05:39.573Z,14.32
2022-12-13T05:06:41.330Z,14.48
2022-12-13T05:07:45.469Z,15.95
2022-12-13T05:08:47.305Z,14.73
2022-12-13T05:09:50.127Z,10.02
2022-12-13T05:10:51.954Z,13.07
2022-12-13T05:12:00.982Z,12.25
2022-12-13T05:13:05.137Z,14.02
2022-12-13T05:14:06.949Z,11.70
2022-12-13T05:15:10.366Z,14.73
2022-12-13T05:16:12.534Z,16.83
2022-12-13T05:17:15.485Z,14.55
2022-12-13T05:18:17.261Z,12.27
2022-12-13T05:19:20.242Z,11.73
2022-12-13T05:20:22.436Z,13.63
2022-12-13T05:21:25.337Z,14.40
2022-12-13T05:22:27.248Z,13.80
2022-12-13T05:23:31.441Z,15.82
2022-12-13T05:24:33.233Z,16.17
2022-12-13T05:25:36.725Z,13.70
2022-12-13T05:26:38.712Z,15.88
2022-12-13T05:27:41.494Z,15.25
2022-12-13T05:28:44.337Z,17.50
2022-12-13T05:29:46.361Z,12.88
2022-12-13T05:30:49.078Z,15.00
2022-12-13T05:31:52.029Z,17.60
2022-12-13T05:32:55.200Z,15.13
2022-12-13T05:34:01.535Z,19.70
2022-12-13T05:35:05.148Z,14.13
2022-12-13T05:36:07.721Z,19.42
2022-12-13T05:37:10.451Z,22.30
2022-12-13T05:38:12.293Z,22.55
2022-12-13T05:39:27.879Z,21.98
2022-12-13T05:40:33.073Z,22.67
2022-12-13T05:41:36.878Z,24.60
2022-12-13T05:42:38.807Z,26.02
2022-12-13T05:43:42.810Z,24.05
2022-12-13T05:44:46.468Z,23.90
2022-12-13T05:45:48.495Z,18.80
2022-12-13T05:46:51.285Z,26.83
2022-12-13T05:47:53.169Z,29.02
2022-12-13T05:48:56.050Z,31.55
2022-12-13T05:49:59.351Z,28.55
2022-12-13T05:51:10.859Z,28.13
2022-12-13T05:52:18.015Z,24.88
2022-12-13T05:53:30.568Z,30.05
2022-12-13T05:54:35.706Z,28.17
2022-12-13T05:55:38.144Z,31.92
2022-12-13T05:56:40.851Z,28.55
2022-12-13T05:57:42.732Z,28.33
2022-12-13T05:58:54.296Z,35.55
2022-12-13T05:59:58.004Z,28.05
2022-12-13T06:01:05.980Z,28.30
2022-12-13T06:02:09.300Z,30.48
2022-12-13T06:03:11.205Z,30.42
2022-12-13T06:04:23.150Z,32.83
2022-12-13T06:05:25.356Z,28.60
2022-12-13T06:06:29.805Z,31.52
2022-12-13T06:07:32.653Z,31.02
2022-12-13T06:08:35.975Z,28.08
2022-12-13T06:09:39.867Z,30.10
2022-12-13T06:10:43.117Z,30.50
2022-12-13T06:11:45.978Z,27.55
2022-12-13T06:12:47.723Z,19.98
2022-12-13T06:13:52.940Z,31.27
2022-12-13T06:15:04.629Z,31.48
2022-12-13T06:16:25.563Z,21.80
2022-12-13T06:17:31.835Z,19.80
2022-12-13T06:18:35.032Z,26.25
2022-12-13T06:19:37.835Z,25.63
2022-12-13T06:20:39.730Z,28.67
2022-12-13T06:21:46.332Z,25.95
2022-12-13T06:22:48.414Z,25.33
2022-12-13T06:23:51.161Z,31.50
2022-12-13T06:24:55.416Z,23.08
2022-12-13T06:25:57.483Z,28.83
2022-12-13T06:27:00.992Z,26.58
2022-12-13T06:28:03.513Z,27.80
2022-12-13T06:29:06.292Z,28.15
2022-12-13T06:30:09.468Z,29.20
2022-12-13T06:31:12.704Z,28.02
2022-12-13T06:32:15.511Z,23.60
2022-12-13T06:33:23.597Z,26.20
2022-12-13T06:34:26.603Z,32.13
2022-12-13T06:35:30.484Z,29.92
2022-12-13T06:36:34.041Z,32.33
2022-12-13T06:37:36.834Z,29.25
2022-12-13T06:38:43.589Z,29.98
2022-12-13T06:39:46.659Z,26.02
2022-12-13T06:40:51.183Z,20.85
2022-12-13T06:41:53.895Z,28.08
2022-12-13T06:42:56.746Z,25.92
2022-12-13T06:43:58.866Z,22.85
2022-12-13T06:45:01.601Z,21.98
2022-12-13T06:46:04.903Z,26.85
2022-12-13T06:47:11.089Z,21.50
2022-12-13T06:48:17.498Z,24.25
2022-12-13T06:49:22.884Z,29.25
2022-12-13T06:50:25.937Z,19.85
2022-12-13T06:51:32.943Z,24.85
2022-12-13T06:52:36.455Z,25.02
2022-12-13T06:53:40.266Z,26.63
2022-12-13T06:54:43.648Z,28.52
2022-12-13T06:55:46.969Z,17.60
2022-12-13T06:56:50.127Z,22.83
2022-12-13T06:57:52.840Z,26.75
2022-12-13T06:59:01.217Z,26.50
2022-12-13T07:00:06.111Z,26.52
2022-12-13T07:01:15.080Z,23.02
2022-12-13T07:02:27.249Z,23.33
2022-12-13T07:03:29.885Z,20.02
2022-12-13T07:04:32.982Z,23.50
2022-12-13T07:05:35.793Z,23.35
2022-12-13T07:06:37.938Z,27.45
2022-12-13T07:07:40.680Z,23.42
2022-12-13T07:08:43.984Z,24.08
2022-12-13T07:09:47.069Z,24.60
2022-12-13T07:10:49.832Z,23.17
2022-12-13T07:11:54.183Z,17.60
2022-12-13T07:12:56.971Z,21.30
2022-12-13T07:14:00.669Z,26.20
2022-12-13T07:15:02.473Z,26.77
2022-12-13T07:16:05.897Z,25.83
2022-12-13T07:17:08.684Z,20.77
2022-12-13T07:18:11.423Z,24.33
2022-12-13T07:19:23.889Z,27.33
2022-12-13T07:20:27.326Z,20.08
2022-12-13T07:21:30.312Z,26.38
2022-12-13T07:22:34.462Z,27.75
2022-12-13T07:23:39.309Z,26.25
2022-12-13T07:24:44.400Z,26.45
2022-12-13T07:25:52.898Z,25.67
2022-12-13T07:26:56.993Z,24.42
2022-12-13T07:28:01.111Z,26.58
2022-12-13T07:29:05.401Z,24.88
2022-12-13T07:30:09.812Z,26.92
2022-12-13T07:31:13.552Z,20.85
2022-12-13T07:32:15.917Z,18.00
2022-12-13T07:33:22.387Z,26.48
2022-12-13T07:34:25.579Z,16.63
2022-12-13T07:35:28.537Z,17.95
2022-12-13T07:36:31.350Z,26.30
2022-12-13T07:37:35.837Z,24.90
2022-12-13T07:38:38.900Z,18.00
2022-12-13T07:39:40.941Z,23.35
2022-12-13T07:40:43.710Z,23.38
2022-12-13T07:41:46.715Z,25.98
2022-12-13T07:42:52.099Z,27.35
2022-12-13T07:43:55.737Z,27.95
2022-12-13T07:44:58.837Z,22.73
2022-12-13T07:46:02.579Z,27.70
2022-12-13T07:47:05.462Z,26.55
2022-12-13T07:48:08.605Z,25.48
2022-12-13T07:49:13.255Z,24.67
2022-12-13T07:50:24.620Z,29.33
2022-12-13T07:51:28.882Z,26.27
2022-12-13T07:52:31.633Z,22.00
2022-12-13T07:53:34.113Z,23.15
2022-12-13T07:54:37.161Z,26.33
2022-12-13T07:55:38.935Z,23.45
2022-12-13T07:56:41.674Z,19.33
2022-12-13T07:57:44.669Z,22.00
2022-12-13T07:58:48.782Z,24.33
2022-12-13T07:59:51.545Z,24.60
2022-12-13T08:00:54.636Z,20.42
2022-12-13T08:01:57.664Z,20.45
2022-12-13T08:03:05.863Z,22.70
2022-12-13T08:04:10.818Z,21.27
2022-12-13T08:05:25.728Z,16.23
2022-12-13T08:06:29.564Z,20.63
2022-12-13T08:07:32.308Z,18.55
2022-12-13T08:08:36.082Z,21.35
2022-12-13T08:09:39.222Z,17.63
2022-12-13T08:10:42.118Z,18.33
2022-12-13T08:11:45.310Z,16.23
2022-12-13T08:12:48.077Z,19.15
2022-12-13T08:13:52.311Z,17.92
2022-12-13T08:14:55.391Z,15.05
2022-12-13T08:16:02.610Z,15.43
2022-12-13T08:17:05.901Z,17.27
2022-12-13T08:18:08.639Z,9.60
2022-12-13T08:19:11.519Z,16.80
2022-12-13T08:20:13.526Z,14.63
2022-12-13T08:21:52.796Z,15.23
2022-12-13T08:22:55.607Z,15.68
2022-12-13T08:24:05.525Z,15.88
2022-12-13T08:25:09.117Z,12.82
2022-12-13T08:26:31.168Z,16.20
2022-12-13T08:27:34.022Z,19.90
2022-12-13T08:28:37.906Z,12.63
2022-12-13T08:29:42.049Z,14.90
2022-12-13T08:30:45.143Z,15.98
2022-12-13T08:31:47.928Z,15.05
2022-12-13T08:32:50.334Z,11.15
2022-12-13T08:33:53.484Z,12.73
2022-12-13T08:34:56.233Z,16.20
2022-12-13T08:35:58.991Z,10.07
2022-12-13T08:37:03.902Z,15.02
2022-12-13T08:38:07.393Z,13.98
2022-12-13T08:39:10.145Z,14.13
2022-12-13T08:40:13.154Z,11.98
2022-12-13T08:41:15.882Z,10.20
2022-12-13T08:42:20.322Z,12.95
2022-12-13T08:43:24.648Z,13.55
2022-12-13T08:44:27.875Z,13.32
2022-12-13T08:45:34.132Z,10.93
2022-12-13T08:46:36.933Z,12.90
2022-12-13T08:47:42.112Z,8.98
2022-12-13T08:48:44.731Z,11.23
2022-12-13T08:49:48.129Z,12.18
2022-12-13T08:50:50.886Z,10.75
2022-12-13T08:51:52.734Z,11.10
2022-12-13T08:52:55.697Z,12.23
2022-12-13T08:54:10.570Z,10.10
2022-12-13T08:55:15.995Z,13.43
2022-12-13T08:56:37.442Z,12.68
2022-12-13T08:57:40.588Z,14.15
2022-12-13T08:58:43.343Z,12.35
2022-12-13T08:59:46.380Z,11.45
2022-12-13T09:00:50.860Z,11.75
2022-12-13T09:01:53.842Z,13.48
2022-12-13T09:02:58.427Z,8.25
2022-12-13T09:04:01.145Z,12.98
2022-12-13T09:05:04.386Z,8.25
2022-12-13T09:06:10.261Z,13.48
2022-12-13T09:07:13.290Z,11.23
2022-12-13T09:08:25.238Z,12.88
2022-12-13T09:09:29.058Z,11.48
2022-12-13T09:10:38.188Z,9.93
2022-12-13T09:11:42.719Z,11.18
2022-12-13T09:12:45.873Z,15.07
2022-12-13T09:13:49.293Z,15.13
2022-12-13T09:14:52.159Z,14.25
2022-12-13T09:16:14.288Z,14.52
2022-12-13T09:17:25.861Z,12.43
2022-12-13T09:18:36.568Z,8.60
2022-12-13T09:19:39.757Z,13.70
2022-12-13T09:20:42.722Z,9.07
2022-12-13T09:21:45.712Z,11.23
2022-12-13T09:22:50.132Z,12.23
2022-12-13T09:23:52.896Z,7.97
2022-12-13T09:25:05.197Z,13.27
2022-12-13T09:26:08.224Z,9.90
2022-12-13T09:27:28.221Z,8.88
2022-12-13T09:28:31.853Z,12.10
2022-12-13T09:29:36.312Z,10.52
2022-12-13T09:30:40.385Z,11.30
2022-12-13T09:31:51.009Z,6.20
2022-12-13T09:33:28.335Z,13.00
2022-12-13T09:34:33.976Z,10.25
2022-12-13T09:35:38.994Z,8.60
2022-12-13T09:36:44.342Z,13.88
2022-12-13T09:37:47.207Z,10.57
2022-12-13T09:38:50.401Z,11.40
2022-12-13T09:39:54.985Z,13.15
2022-12-13T09:40:59.535Z,14.43
2022-12-13T09:42:10.300Z,15.93
2022-12-13T09:43:23.016Z,11.70
2022-12-13T09:44:42.782Z,10.52
2022-12-13T09:45:50.486Z,6.60
2022-12-13T09:46:55.781Z,11.35
2022-12-13T09:48:07.186Z,7.55
2022-12-13T09:49:23.081Z,5.50
2022-12-13T09:50:29.202Z,8.13
2022-12-13T09:51:47.292Z,8.65
2022-12-13T09:52:51.898Z,7.75
2022-12-13T09:54:02.576Z,8.23
2022-12-13T09:55:10.950Z,6.55
2022-12-13T09:56:13.966Z,9.27
2022-12-13T09:57:30.612Z,8.05
2022-12-13T09:58:57.605Z,9.65
2022-12-13T10:00:05.968Z,7.30
2022-12-13T10:01:23.303Z,8.15
2022-12-13T10:02:30.582Z,7.18
2022-12-13T10:03:34.628Z,6.72
2022-12-13T10:04:37.445Z,9.20
2022-12-13T10:05:40.479Z,9.55
2022-12-13T10:06:43.639Z,7.75
2022-12-13T10:07:46.192Z,8.70
2022-12-13T10:08:50.048Z,7.32
2022-12-13T10:10:01.712Z,9.88
2022-12-13T10:11:05.269Z,8.32
2022-12-13T10:12:11.868Z,8.65
2022-12-13T10:13:19.198Z,8.93
2022-12-13T10:14:26.235Z,11.90
2022-12-13T10:15:29.371Z,14.73
2022-12-13T10:16:39.875Z,8.25
2022-12-13T10:17:55.408Z,6.68
2022-12-13T10:18:58.694Z,14.85
2022-12-13T10:20:00.705Z,10.10
2022-12-13T10:21:05.741Z,13.40
2022-12-13T10:22:13.370Z,18.10
2022-12-13T10:23:35.771Z,11.65
2022-12-13T10:24:50.693Z,8.05
2022-12-13T10:26:03.173Z,7.78
2022-12-13T10:27:14.533Z,11.00
2022-12-13T10:28:19.287Z,13.75
2022-12-13T10:29:23.139Z,14.73
2022-12-13T10:30:29.096Z,10.07
2022-12-13T10:31:40.625Z,13.55
2022-12-13T10:32:49.323Z,12.10
2022-12-13T10:33:55.328Z,12.27
2022-12-13T10:34:58.825Z,12.68
2022-12-13T10:36:06.679Z,11.65
2022-12-13T10:37:26.204Z,12.05
2022-12-13T10:38:31.892Z,16.58
2022-12-13T10:39:40.530Z,14.98
2022-12-13T10:40:45.546Z,13.60
2022-12-13T10:41:48.457Z,13.35
2022-12-13T10:43:07.598Z,13.52
2022-12-13T10:44:18.618Z,18.35
2022-12-13T10:45:24.431Z,14.57
2022-12-13T10:46:31.103Z,11.93
2022-12-13T10:47:43.481Z,16.98
2022-12-13T10:48:50.563Z,16.08
2022-12-13T10:49:59.001Z,17.08
2022-12-13T10:51:04.583Z,14.93
2022-12-13T10:52:09.228Z,17.27
2022-12-13T10:53:19.616Z,20.55
2022-12-13T10:54:28.701Z,12.98
2022-12-13T10:55:41.115Z,13.50
2022-12-13T10:56:47.044Z,16.33
2022-12-13T10:57:52.187Z,12.82
2022-12-13T10:59:16.547Z,12.90
2022-12-13T11:00:41.303Z,14.70
2022-12-13T11:01:44.572Z,11.82
2022-12-13T11:02:55.299Z,8.55
2022-12-13T11:04:02.609Z,14.43
2022-12-13T11:05:25.940Z,8.38
2022-12-13T11:06:29.537Z,11.68
2022-12-13T11:07:33.487Z,13.82
2022-12-13T11:08:37.178Z,13.45
2022-12-13T11:09:39.938Z,15.63
2022-12-13T11:10:42.903Z,14.43
2022-12-13T11:11:46.616Z,16.92
2022-12-13T11:12:50.650Z,18.25
2022-12-13T11:13:54.410Z,15.75
2022-12-13T11:14:59.113Z,16.77
2022-12-13T11:16:01.824Z,15.48
2022-12-13T11:17:08.637Z,12.25
2022-12-13T11:18:23.175Z,15.00
2022-12-13T11:19:30.798Z,14.30
2022-12-13T11:20:35.703Z,17.83
2022-12-13T11:21:39.628Z,17.25
2022-12-13T11:22:44.169Z,18.38
2022-12-13T11:23:47.665Z,10.27
2022-12-13T11:24:52.372Z,17.98
2022-12-13T11:25:58.688Z,19.38
2022-12-13T11:27:05.917Z,14.93
2022-12-13T11:28:26.976Z,21.50
2022-12-13T11:29:58.912Z,20.55
2022-12-13T11:31:10.185Z,19.10
2022-12-13T11:32:22.894Z,24.10
2022-12-13T11:33:29.001Z,16.75
2022-12-13T11:34:39.191Z,26.73
2022-12-13T11:35:55.169Z,30.33
2022-12-13T11:37:03.728Z,26.33
2022-12-13T11:38:16.176Z,17.48
2022-12-13T11:39:21.306Z,27.48
2022-12-13T11:40:26.878Z,26.55
2022-12-13T11:41:33.332Z,26.95
2022-12-13T11:42:40.262Z,30.13
2022-12-13T11:43:47.746Z,26.73
2022-12-13T11:44:59.918Z,29.48
2022-12-13T11:46:06.148Z,29.38
2022-12-13T11:47:15.419Z,30.20
2022-12-13T11:48:21.429Z,23.05
2022-12-13T11:49:33.526Z,27.33
2022-12-13T11:50:40.439Z,29.95
2022-12-13T11:51:46.229Z,27.02
2022-12-13T11:52:53.718Z,25.55
2022-12-13T11:54:01.860Z,28.15
2022-12-13T11:55:08.033Z,31.10
2022-12-13T11:56:17.141Z,36.70
2022-12-13T11:57:28.474Z,30.05
2022-12-13T11:59:01.875Z,30.88
2022-12-13T12:00:13.211Z,31.98
2022-12-13T12:01:23.611Z,29.38
2022-12-13T12:02:30.424Z,25.73
2022-12-13T12:03:37.983Z,26.27
2022-12-13T12:04:47.240Z,33.13
2022-12-13T12:05:56.102Z,41.53
2022-12-13T12:07:24.339Z,38.63
2022-12-13T12:08:43.691Z,28.67
2022-12-13T12:09:51.622Z,23.67
2022-12-13T12:11:02.499Z,20.27
2022-12-13T12:12:09.258Z,23.95
2022-12-13T12:13:18.009Z,22.95
2022-12-13T12:14:24.578Z,26.08
2022-12-13T12:15:31.016Z,17.75
2022-12-13T12:16:39.805Z,24.27
2022-12-13T12:17:43.285Z,25.13
2022-12-13T12:18:46.476Z,23.40
2022-12-13T12:19:52.449Z,21.55
2022-12-13T12:21:05.985Z,11.70
2022-12-13T12:22:19.301Z,12.73
2022-12-13T12:23:30.067Z,19.63
2022-12-13T12:24:40.559Z,23.63
2022-12-13T12:25:48.443Z,11.50
2022-12-13T12:27:01.043Z,24.58
2022-12-13T12:28:12.100Z,11.10
2022-12-13T12:29:27.772Z,20.20
2022-12-13T12:30:39.293Z,24.52
2022-12-13T12:31:50.897Z,21.35
2022-12-13T12:32:55.831Z,21.92
2022-12-13T12:34:05.533Z,20.45
2022-12-13T12:35:23.124Z,23.00
2022-12-13T12:36:37.924Z,22.38
2022-12-13T12:37:48.393Z,15.73
2022-12-13T12:39:06.379Z,17.17
2022-12-13T12:41:14.230Z,20.45
2022-12-13T12:42:16.382Z,22.30
2022-12-13T12:43:23.755Z,23.23
2022-12-13T12:44:33.650Z,17.08
2022-12-13T12:45:57.313Z,24.30
2022-12-13T12:49:00.474Z,29.67
2022-12-13T12:50:27.409Z,23.55
2022-12-13T12:51:35.541Z,16.23
2022-12-13T12:52:50.625Z,20.52
2022-12-13T12:53:56.111Z,20.50
2022-12-13T12:55:05.212Z,20.70
2022-12-13T12:56:18.688Z,23.70
2022-12-13T12:57:24.792Z,16.17
2022-12-13T12:58:30.126Z,22.55
2022-12-13T12:59:38.589Z,19.10
2022-12-13T13:00:46.514Z,17.50
2022-12-13T13:01:57.431Z,19.88
2022-12-13T13:03:14.728Z,19.60
2022-12-13T13:04:23.223Z,16.95
2022-12-13T13:05:28.889Z,19.27
2022-12-13T13:06:36.026Z,17.25
2022-12-13T13:07:43.562Z,18.70
2022-12-13T13:08:59.224Z,14.18
2022-12-13T13:10:16.328Z,16.48
2022-12-13T13:11:27.904Z,16.95
2022-12-13T13:12:32.423Z,16.98
2022-12-13T13:13:46.056Z,20.25
2022-12-13T13:14:50.349Z,17.60
2022-12-13T13:15:57.842Z,16.35
2022-12-13T13:17:02.024Z,17.50
2022-12-13T13:18:04.749Z,16.13
2022-12-13T13:19:41.994Z,16.00
2022-12-13T13:20:45.054Z,13.98
2022-12-13T13:21:50.300Z,16.52
2022-12-13T13:23:10.305Z,16.65
2022-12-13T13:24:19.888Z,13.48
2022-12-13T13:25:32.726Z,14.40
2022-12-13T13:26:40.612Z,19.77
2022-12-13T13:27:44.942Z,19.42
2022-12-13T13:28:47.738Z,21.88
2022-12-13T13:29:50.968Z,21.20
2022-12-13T13:31:04.877Z,18.98
2022-12-13T13:32:27.914Z,18.55
2022-12-13T13:33:45.008Z,20.10
2022-12-13T13:34:49.488Z,19.35
2022-12-13T13:35:54.237Z,23.38
2022-12-13T13:36:59.258Z,22.20
2022-12-13T13:38:05.383Z,25.40
2022-12-13T13:39:16.413Z,23.13
2022-12-13T13:40:34.364Z,23.52
2022-12-13T13:41:56.685Z,22.13
2022-12-13T13:43:04.762Z,24.17
2022-12-13T13:44:35.501Z,22.15
2022-12-13T13:45:57.681Z,25.15
2022-12-13T13:47:12.827Z,23.95
2022-12-13T13:48:25.008Z,21.48
2022-12-13T13:49:31.622Z,22.25
2022-12-13T13:51:10.606Z,19.95
2022-12-13T13:52:25.568Z,23.92
2022-12-13T13:53:41.071Z,22.95
2022-12-13T13:55:40.647Z,21.27
2022-12-13T13:57:33.204Z,23.52
2022-12-13T13:59:07.002Z,24.73
2022-12-13T14:00:14.846Z,20.85
2022-12-13T14:01:47.981Z,21.75
2022-12-13T14:03:33.117Z,25.58
2022-12-13T14:04:59.529Z,23.35
2022-12-13T14:06:35.189Z,24.52
2022-12-13T14:07:54.379Z,30.70
2022-12-13T14:09:20.432Z,24.33
2022-12-13T14:10:51.408Z,23.80
2022-12-13T14:12:34.657Z,26.83
2022-12-13T14:14:21.352Z,25.15
2022-12-13T14:15:49.271Z,19.80
2022-12-13T14:17:41.458Z,23.35
2022-12-13T14:19:21.290Z,26.67
2022-12-13T14:20:46.226Z,28.95
2022-12-13T14:22:06.809Z,22.92
2022-12-13T14:23:21.806Z,25.92
2022-12-13T14:24:44.057Z,26.02
2022-12-13T14:25:59.951Z,26.63
2022-12-13T14:27:11.662Z,23.17
2022-12-13T14:28:18.500Z,26.10
2022-12-13T14:29:25.552Z,28.73
2022-12-13T14:30:29.525Z,61.20
2022-12-13T14:31:37.427Z,114.50
2022-12-13T14:32:40.648Z,93.38
2022-12-13T14:33:47.503Z,56.55
2022-12-13T14:34:50.722Z,36.20